createdAt,value
2022-12-01T01:46:34.816Z,0.00
2022-12-01T01:46:39.912Z,0.00
2022-12-01T01:47:39.919Z,0.00
2022-12-01T01:48:39.909Z,0.00
2022-12-01T01:49:39.878Z,0.00
2022-12-01T03:06:51.279Z,0.00
2022-12-01T04:49:07.704Z,0.00
2022-12-01T04:49:12.812Z,0.00
2022-12-01T04:50:12.830Z,0.00
2022-12-01T04:51:12.829Z,0.00
2022-12-01T04:52:12.756Z,0.00
2022-12-01T04:53:12.777Z,0.00
2022-12-01T05:32:24.697Z,0.00
2022-12-01T05:32:29.797Z,0.00
2022-12-01T05:33:29.753Z,0.00
2022-12-01T05:34:29.834Z,0.00
2022-12-01T05:35:29.826Z,0.00
2022-12-01T05:36:29.729Z,0.00
2022-12-01T05:37:29.715Z,0.00
2022-12-01T05:38:29.694Z,1.00
2022-12-01T05:39:29.690Z,0.00
2022-12-01T05:40:29.664Z,0.00
2022-12-01T05:41:29.632Z,1.00
2022-12-01T05:42:29.677Z,0.00
2022-12-01T05:43:29.900Z,0.00
2022-12-01T05:44:29.671Z,0.00
2022-12-01T05:45:29.695Z,0.00
2022-12-01T05:46:29.575Z,1.00
2022-12-01T05:47:29.622Z,0.00
2022-12-01T05:48:29.631Z,0.00
2022-12-01T05:49:29.589Z,0.00
2022-12-01T05:50:29.583Z,0.00
2022-12-01T05:51:29.597Z,0.00
2022-12-01T05:52:29.554Z,0.00
2022-12-01T05:53:29.611Z,0.00
2022-12-01T05:54:29.478Z,1.00
2022-12-01T05:55:29.544Z,0.00
2022-12-01T05:56:29.547Z,0.00
2022-12-01T05:57:29.527Z,0.00
2022-12-01T05:58:29.511Z,0.00
2022-12-01T05:59:29.563Z,0.00
2022-12-01T06:00:29.485Z,0.00
2022-12-01T06:01:29.501Z,0.00
2022-12-01T06:02:29.480Z,0.00
2022-12-01T06:03:29.387Z,1.00
2022-12-01T06:04:29.567Z,0.00
2022-12-01T06:05:29.403Z,1.00
2022-12-01T06:06:29.420Z,0.00
2022-12-01T06:07:29.435Z,0.00
2022-12-01T06:08:29.390Z,1.00
2022-12-01T06:09:29.412Z,0.00
2022-12-01T06:10:29.482Z,0.00
2022-12-01T06:11:29.373Z,0.00
2022-12-01T06:12:29.359Z,0.00
2022-12-01T06:13:29.328Z,1.00
2022-12-01T06:14:29.343Z,0.00
2022-12-01T06:15:29.352Z,1.00
2022-12-01T06:16:29.340Z,0.00
2022-12-01T06:17:29.306Z,0.00
2022-12-01T06:18:29.325Z,0.00
2022-12-01T06:19:29.285Z,0.00
2022-12-01T06:20:29.323Z,0.00
2022-12-01T06:21:29.315Z,0.00
2022-12-01T06:22:29.279Z,0.00
2022-12-01T06:23:30.743Z,0.00
2022-12-01T06:24:29.236Z,0.00
2022-12-01T06:25:29.268Z,0.00
2022-12-01T06:26:30.580Z,0.00
2022-12-01T06:27:30.569Z,1.00
2022-12-01T08:43:57.027Z,0.00
2022-12-01T10:59:17.584Z,123.00
2022-12-01T10:59:24.039Z,59.00
2022-12-01T13:07:44.355Z,421.00
2022-12-01T15:14:02.210Z,362.00
2022-12-01T15:14:09.257Z,448.00
2022-12-01T15:15:09.152Z,79.00
2022-12-01T15:16:16.547Z,72.00
2022-12-01T15:17:08.128Z,70.00
2022-12-01T15:18:07.922Z,66.00
2022-12-01T15:19:08.999Z,61.00
2022-12-01T15:20:08.992Z,65.00
2022-12-01T15:21:09.071Z,55.00
2022-12-01T17:00:20.899Z,51.00
2022-12-01T17:00:26.518Z,43.00
2022-12-01T19:16:39.533Z,0.00
2022-12-01T19:16:46.076Z,0.00
2022-12-01T21:32:57.152Z,0.00
2022-12-01T21:33:03.558Z,0.00
2022-12-01T23:10:15.912Z,0.00
2022-12-01T23:10:22.999Z,0.00
2022-12-01T23:11:22.434Z,0.00
2022-12-01T23:12:21.707Z,0.00
2022-12-01T23:13:22.310Z,0.00
2022-12-01T23:14:22.441Z,0.00
2022-12-01T23:15:21.870Z,0.00
2022-12-01T23:16:22.019Z,0.00
2022-12-01T23:17:22.097Z,0.00
2022-12-01T23:18:23.145Z,0.00
2022-12-01T23:19:24.392Z,0.00
2022-12-01T23:20:23.386Z,0.00
2022-12-01T23:21:22.262Z,0.00
2022-12-01T23:22:21.900Z,0.00
2022-12-01T23:23:24.113Z,0.00
2022-12-01T23:24:22.760Z,0.00
